RUNWAY INFORMATION
Runway Length Width Elevation Displaced
Threshold
Heading | Runway Length Width Elevation Displaced
Threshold
Heading
05 10171 ft 148 ft 160 ft 0 ft 46 | 23 10171 ft 148 ft 151 ft 0 ft 226
11 7923 ft 148 ft 153 ft 0 ft 107 | 29 7923 ft 148 ft 160 ft 0 ft 287

 AIRPORT FREQUENCIES
Type APP Name AQUITAINE Frequency 118.6 MHZ
Type ARR Name APP Frequency 121.2 MHZ
Type ATIS Name ATIS Frequency 131.15 MHZ
Type GND Name GND Frequency 121.9 MHZ
Type INFO Name AQUITAINE Frequency 120.575 MHZ
Type OPS Name OPNS Frequency 143.175 MHZ
Type TWR Name TWR Frequency 118.3 MHZ

 AIRPORT NEAR NAVIGATION AIDS
Type NDB Name Bordeaux Frequency 393 KHZ
Type TACAN Name Bordeaux Frequency 114400 KHZ
Type NDB Name Bordeaux Frequency 318 KHZ
Type VOR-DME Name Bordeaux Frequency 113750 KHZ
Type NDB Name Bordeaux Frequency 361 KHZ

 METAR AND TAF INFORMATION
METAR FOR LFBD
ADDS - METARS form results

(0739 UTC 15 June 2021)
Data provider http://aviationweather.gov/metar/data/
 
METAR text: LFBD 150730Z AUTO 00000KT CAVOK 25/18 Q1019 NOSIG
Conditions at: LFBD (BORDEAUX/MERIGNA, FR) observed 0730 UTC 15 June 2021
Temperature: 25.0°C (77°F)
Dewpoint: 18.0°C (64°F) [RH = 65%]
Pressure (altimeter): 30.09 inches Hg (1019.0 mb)
Winds: calm
Visibility: 6 or more miles (10+ km)
Ceiling: ceiling and visibility are OK
Clouds: unknown
Weather: no significant weather observed at this time

METAR text: LFBD 150700Z AUTO VRB01KT CAVOK 23/17 Q1019 NOSIG
Conditions at: LFBD (BORDEAUX/MERIGNA, FR) observed 0700 UTC 15 June 2021
Temperature: 23.0°C (73°F)
Dewpoint: 17.0°C (63°F) [RH = 69%]
Pressure (altimeter): 30.09 inches Hg (1019.0 mb)
Winds: variable direction winds at 1 MPH (1 knots; 0.5 m/s)
Visibility: 6 or more miles (10+ km)
Ceiling: ceiling and visibility are OK
Clouds: unknown
Weather: no significant weather observed at this time

Forecast for: LFBD (BORDEAUX/MERIGNA, FR)
Text: TAF LFBD 150500Z 1506/1612 VRB03KT CAVOK TX34/1514Z TN20/1506Z
Forecast period: 0600 UTC 15 June 2021 to 1200 UTC 16 June 2021
Forecast type: FROM: standard forecast or significant change
Winds: variable direction winds at 3 MPH (3 knots; 1.5 m/s)
Visibility: 6 or more miles (10+ km)
Ceiling: unknown
Clouds: missing
Weather: no significant weather forecast for this period
Text: PROB30
Forecast period: 0700 to 1000 UTC 16 June 2021
Forecast type: TEMPORARY: The following changes expected for less than half the time period
Visibility: missing
Ceiling: 10000 feet AGL
Clouds: broken clouds at 10000 feet AGL
Weather: -SHRA  (light rain showers)



© 2013 - 2021, FlightSimLog.org - Powered by Virtual Airlines Manager